createdAt,value
2022-12-20T00:01:55.308Z,74.92
2022-12-20T00:04:23.607Z,75.30
2022-12-20T00:06:51.799Z,74.83
2022-12-20T00:09:21.277Z,74.71
2022-12-20T00:11:49.563Z,75.38
2022-12-20T00:14:19.389Z,74.26
2022-12-20T00:16:47.525Z,73.94
2022-12-20T00:19:15.676Z,74.00
2022-12-20T00:21:43.919Z,73.69
2022-12-20T00:24:12.252Z,74.20
2022-12-20T00:26:40.718Z,73.84
2022-12-20T00:29:09.511Z,73.55
2022-12-20T00:31:39.052Z,73.80
2022-12-20T00:34:07.263Z,73.64
2022-12-20T00:36:35.601Z,74.14
2022-12-20T00:39:03.801Z,74.31
2022-12-20T00:41:34.681Z,73.71
2022-12-20T00:44:03.445Z,74.29
2022-12-20T00:46:34.187Z,74.29
2022-12-20T00:49:03.842Z,74.40
2022-12-20T00:51:33.745Z,75.09
2022-12-20T00:54:01.919Z,75.72
2022-12-20T00:56:30.020Z,76.46
2022-12-20T00:59:00.679Z,76.30
2022-12-20T01:01:31.987Z,76.18
2022-12-20T01:04:00.813Z,76.37
2022-12-20T01:06:31.651Z,75.71
2022-12-20T01:09:00.726Z,75.61
2022-12-20T01:11:31.469Z,74.83
2022-12-20T01:14:03.712Z,74.66
2022-12-20T01:16:35.864Z,74.29
2022-12-20T01:19:04.890Z,73.96
2022-12-20T01:21:35.185Z,74.24
2022-12-20T01:24:03.349Z,73.64
2022-12-20T01:26:31.745Z,73.30
2022-12-20T01:29:01.580Z,73.57
2022-12-20T01:31:31.337Z,73.23
2022-12-20T01:34:02.781Z,73.22
2022-12-20T01:36:35.908Z,73.62
2022-12-20T01:39:08.366Z,73.54
2022-12-20T01:41:38.865Z,74.32
2022-12-20T01:44:46.376Z,74.86
2022-12-20T01:47:15.280Z,74.64
2022-12-20T01:49:50.084Z,73.75
2022-12-20T01:52:26.427Z,74.04
2022-12-20T01:54:59.501Z,73.90
2022-12-20T01:57:36.096Z,73.51
2022-12-20T02:00:08.515Z,74.17
2022-12-20T02:02:37.656Z,74.07
2022-12-20T02:05:07.025Z,73.18
2022-12-20T02:07:39.825Z,73.89
2022-12-20T02:10:11.540Z,73.96
2022-12-20T02:12:43.075Z,74.20
2022-12-20T02:15:38.827Z,73.88
2022-12-20T02:18:23.302Z,73.02
2022-12-20T02:21:22.021Z,73.15
2022-12-20T02:24:40.183Z,73.41
2022-12-20T02:27:47.281Z,74.12
2022-12-20T02:30:20.158Z,74.49
2022-12-20T02:32:59.056Z,74.33
2022-12-20T02:35:32.673Z,75.10
2022-12-20T02:38:04.962Z,76.11
2022-12-20T02:40:41.806Z,76.93
2022-12-20T02:43:33.631Z,77.83
2022-12-20T02:46:04.270Z,78.84
2022-12-20T02:48:38.348Z,79.28
2022-12-20T02:51:09.998Z,79.40
2022-12-20T02:53:42.706Z,80.37
2022-12-20T02:56:21.385Z,80.55
2022-12-20T02:58:56.397Z,81.36
2022-12-20T03:01:32.262Z,81.66
2022-12-20T03:04:01.728Z,81.78
2022-12-20T03:06:30.683Z,82.34
2022-12-20T03:08:59.041Z,83.10
2022-12-20T03:11:27.207Z,82.82
2022-12-20T03:13:55.448Z,83.57
2022-12-20T03:16:25.112Z,83.72
2022-12-20T03:18:53.305Z,83.90
2022-12-20T03:21:21.424Z,83.86
2022-12-20T03:23:49.794Z,83.97
2022-12-20T03:26:17.919Z,83.96
2022-12-20T03:28:46.059Z,84.30
2022-12-20T03:31:14.279Z,84.93
2022-12-20T03:33:43.854Z,85.31
2022-12-20T03:36:12.141Z,85.51
2022-12-20T03:38:40.266Z,85.13
2022-12-20T03:41:08.412Z,85.40
2022-12-20T03:43:36.481Z,85.36
2022-12-20T03:46:04.684Z,85.70
2022-12-20T03:48:32.841Z,86.11
2022-12-20T03:51:02.360Z,85.70
2022-12-20T03:53:30.629Z,85.39
2022-12-20T03:55:58.788Z,85.55
2022-12-20T03:58:27.144Z,85.97
2022-12-20T04:00:55.269Z,86.57
2022-12-20T04:03:23.442Z,86.54
2022-12-20T04:05:51.922Z,86.83
2022-12-20T04:08:21.426Z,87.25
2022-12-20T04:11:06.982Z,87.47
2022-12-20T04:13:35.091Z,87.63
2022-12-20T04:16:03.258Z,87.41
2022-12-20T04:18:31.456Z,87.56
2022-12-20T04:21:01.455Z,87.10
2022-12-20T04:23:31.431Z,87.05
2022-12-20T04:25:59.541Z,87.63
2022-12-20T04:28:27.655Z,87.86
2022-12-20T04:30:55.927Z,86.66
2022-12-20T04:33:24.530Z,85.96
2022-12-20T04:35:53.382Z,86.42
2022-12-20T04:38:24.542Z,86.08
2022-12-20T04:40:56.236Z,86.65
2022-12-20T04:43:25.583Z,87.15
2022-12-20T04:45:57.147Z,87.20
2022-12-20T04:51:18.032Z,87.26
2022-12-20T04:53:48.808Z,87.72
2022-12-20T04:56:22.096Z,87.90
2022-12-20T04:58:53.387Z,87.79
2022-12-20T05:01:21.857Z,87.56
2022-12-20T05:03:50.708Z,87.97
2022-12-20T05:06:19.748Z,87.75
2022-12-20T05:08:48.448Z,88.01
2022-12-20T05:11:18.591Z,87.79
2022-12-20T05:13:46.714Z,87.42
2022-12-20T05:16:14.925Z,86.94
2022-12-20T05:18:48.927Z,86.60
2022-12-20T05:21:35.398Z,86.70
2022-12-20T05:24:21.097Z,86.84
2022-12-20T05:26:50.621Z,85.72
2022-12-20T05:29:18.789Z,86.09
2022-12-20T05:31:47.568Z,85.26
2022-12-20T05:34:15.934Z,85.52
2022-12-20T05:36:44.451Z,85.69
2022-12-20T05:39:12.700Z,84.92
2022-12-20T05:41:41.219Z,85.39
2022-12-20T05:44:10.711Z,85.19
2022-12-20T05:46:38.988Z,85.06
2022-12-20T05:49:07.148Z,84.92
2022-12-20T05:51:35.428Z,84.69
2022-12-20T05:54:03.652Z,84.39
2022-12-20T05:56:31.807Z,84.48
2022-12-20T05:59:00.016Z,84.83
2022-12-20T06:01:29.569Z,85.16
2022-12-20T06:03:57.844Z,84.17
2022-12-20T06:06:26.094Z,84.34
2022-12-20T06:08:56.086Z,84.08
2022-12-20T06:11:29.651Z,84.38
2022-12-20T06:13:59.175Z,84.26
2022-12-20T06:16:28.841Z,84.44
2022-12-20T06:18:57.372Z,83.81
2022-12-20T06:21:27.588Z,83.19
2022-12-20T06:23:56.697Z,82.87
2022-12-20T06:26:24.978Z,83.34
2022-12-20T06:28:56.639Z,83.55
2022-12-20T06:31:24.827Z,82.99
2022-12-20T06:33:54.647Z,83.19
2022-12-20T06:36:22.921Z,83.20
2022-12-20T06:38:51.047Z,83.74
2022-12-20T06:41:21.545Z,84.26
2022-12-20T06:43:49.656Z,84.31
2022-12-20T06:46:17.944Z,84.63
2022-12-20T06:48:46.169Z,84.36
2022-12-20T06:51:17.218Z,84.09
2022-12-20T06:53:45.472Z,84.28
2022-12-20T06:56:13.601Z,84.23
2022-12-20T06:58:41.762Z,84.62
2022-12-20T07:01:09.968Z,85.29
2022-12-20T07:03:38.150Z,85.77
2022-12-20T07:06:06.929Z,86.02
2022-12-20T07:08:36.655Z,86.16
2022-12-20T07:11:06.768Z,86.23
2022-12-20T07:13:35.382Z,86.35
2022-12-20T07:16:05.008Z,86.57
2022-12-20T07:18:35.434Z,86.04
2022-12-20T07:21:06.121Z,85.68
2022-12-20T07:23:36.295Z,85.87
2022-12-20T07:26:05.702Z,85.09
2022-12-20T07:28:34.156Z,82.67
2022-12-20T07:31:03.259Z,81.92
2022-12-20T07:33:32.543Z,81.48
2022-12-20T07:36:05.153Z,81.22
2022-12-20T07:38:33.710Z,80.89
2022-12-20T07:41:07.576Z,80.98
2022-12-20T07:43:36.060Z,81.46
2022-12-20T07:46:05.604Z,81.41
2022-12-20T07:48:35.129Z,81.26
2022-12-20T07:51:07.407Z,81.07
2022-12-20T07:53:40.072Z,79.98
2022-12-20T07:56:12.096Z,79.51
2022-12-20T07:58:44.042Z,79.56
2022-12-20T08:01:13.882Z,78.56
2022-12-20T08:03:48.724Z,78.22
2022-12-20T08:06:18.645Z,78.31
2022-12-20T08:08:52.311Z,78.46
2022-12-20T08:11:24.789Z,78.46
2022-12-20T08:13:57.764Z,78.42
2022-12-20T08:16:28.002Z,78.30
2022-12-20T08:18:58.347Z,78.68
2022-12-20T08:21:26.601Z,79.55
2022-12-20T08:23:54.770Z,79.23
2022-12-20T08:26:25.036Z,79.72
2022-12-20T08:28:53.226Z,77.88
2022-12-20T08:31:21.418Z,78.13
2022-12-20T08:33:50.049Z,78.65
2022-12-20T08:36:18.185Z,78.77
2022-12-20T08:38:46.357Z,78.12
2022-12-20T08:41:16.720Z,78.69
2022-12-20T08:43:46.211Z,77.32
2022-12-20T08:46:14.441Z,77.48
2022-12-20T08:48:42.732Z,77.78
2022-12-20T08:51:12.930Z,77.95
2022-12-20T08:53:41.344Z,78.55
2022-12-20T08:56:13.043Z,78.60
2022-12-20T08:58:42.709Z,78.13
2022-12-20T09:01:16.310Z,78.19
2022-12-20T09:03:45.366Z,77.64
2022-12-20T09:06:16.393Z,77.79
2022-12-20T09:08:44.897Z,77.00
2022-12-20T09:11:15.667Z,77.48
2022-12-20T09:13:46.688Z,76.60
2022-12-20T09:16:19.214Z,76.13
2022-12-20T09:18:50.670Z,76.28
2022-12-20T09:21:20.085Z,77.01
2022-12-20T09:23:51.155Z,76.32
2022-12-20T09:26:21.047Z,76.21
2022-12-20T09:28:50.154Z,76.72
2022-12-20T09:31:22.503Z,76.56
2022-12-20T09:33:51.864Z,75.93
2022-12-20T09:36:22.801Z,76.08
2022-12-20T09:38:51.738Z,75.54
2022-12-20T09:41:29.925Z,76.03
2022-12-20T09:44:01.048Z,75.78
2022-12-20T09:46:31.371Z,74.89
2022-12-20T09:49:03.425Z,74.37
2022-12-20T09:52:00.213Z,74.78
2022-12-20T09:54:43.539Z,74.33
2022-12-20T09:57:25.548Z,75.68
2022-12-20T09:59:57.063Z,73.96
2022-12-20T10:02:55.720Z,73.12
2022-12-20T10:05:21.260Z,72.04
2022-12-20T10:07:59.089Z,72.47
2022-12-20T10:10:55.142Z,72.22
2022-12-20T10:13:49.484Z,72.39
2022-12-20T10:16:37.920Z,72.01
2022-12-20T10:19:30.559Z,72.02
2022-12-20T10:22:12.584Z,72.01
2022-12-20T10:24:48.161Z,71.94
2022-12-20T10:27:20.045Z,72.27
2022-12-20T10:29:51.423Z,71.48
2022-12-20T10:32:23.567Z,70.92
2022-12-20T10:35:13.336Z,71.18
2022-12-20T10:38:08.379Z,70.36
2022-12-20T10:43:44.623Z,68.68
2022-12-20T10:46:14.648Z,69.01
2022-12-20T10:48:46.741Z,69.36
2022-12-20T10:51:20.445Z,69.22
2022-12-20T10:53:56.293Z,69.56
2022-12-20T10:56:28.516Z,68.64
2022-12-20T10:58:59.958Z,68.52
2022-12-20T11:01:32.420Z,67.97
2022-12-20T11:04:04.722Z,67.84
2022-12-20T11:06:46.490Z,67.46
2022-12-20T11:09:29.027Z,67.53
2022-12-20T11:12:02.914Z,67.18
2022-12-20T11:14:38.757Z,66.66
2022-12-20T11:17:26.039Z,66.91
2022-12-20T11:20:23.429Z,67.33
2022-12-20T11:23:07.365Z,68.00
2022-12-20T11:26:05.109Z,67.99
2022-12-20T11:28:59.549Z,67.35
2022-12-20T11:31:42.801Z,68.43
2022-12-20T11:34:32.859Z,68.47
2022-12-20T11:37:18.280Z,69.00
2022-12-20T11:40:05.335Z,69.20
2022-12-20T11:42:53.597Z,68.92
2022-12-20T11:45:31.490Z,68.37
2022-12-20T11:48:35.770Z,68.75
2022-12-20T11:51:15.630Z,68.26
2022-12-20T11:53:55.532Z,67.19
2022-12-20T11:56:36.235Z,67.52
2022-12-20T11:59:18.457Z,69.03
2022-12-20T12:01:54.638Z,69.99
2022-12-20T12:04:27.538Z,70.09
2022-12-20T12:07:04.219Z,69.85
2022-12-20T12:09:39.703Z,69.93
2022-12-20T12:12:19.375Z,70.13
2022-12-20T12:14:59.560Z,70.11
2022-12-20T12:17:40.731Z,68.38
2022-12-20T12:20:32.611Z,68.66
2022-12-20T12:23:13.558Z,68.64
2022-12-20T12:25:41.596Z,68.99
2022-12-20T12:28:14.461Z,68.35
2022-12-20T12:30:48.721Z,68.77
2022-12-20T12:33:25.556Z,68.83
2022-12-20T12:36:17.740Z,68.33
2022-12-20T12:39:50.452Z,67.96
2022-12-20T12:42:59.181Z,67.53
2022-12-20T12:45:36.039Z,67.61
2022-12-20T12:48:09.381Z,67.38
2022-12-20T12:50:44.080Z,67.82
2022-12-20T12:53:18.432Z,68.02
2022-12-20T12:55:49.175Z,67.21
2022-12-20T12:58:33.569Z,67.33
2022-12-20T13:01:08.081Z,67.63
2022-12-20T13:03:48.122Z,67.60
2022-12-20T13:06:56.181Z,67.59
2022-12-20T13:09:43.587Z,68.07
2022-12-20T13:13:01.253Z,68.22
2022-12-20T13:16:08.135Z,68.07
2022-12-20T13:18:36.312Z,68.11
2022-12-20T13:21:37.451Z,67.80
2022-12-20T13:24:57.045Z,68.64
2022-12-20T13:27:31.811Z,68.78
2022-12-20T13:30:22.201Z,68.62
2022-12-20T13:33:17.260Z,68.52
2022-12-20T13:36:32.563Z,68.50
2022-12-20T13:39:03.960Z,68.44
2022-12-20T13:41:44.930Z,67.92
2022-12-20T13:44:42.478Z,67.41
2022-12-20T13:47:37.614Z,66.54
2022-12-20T13:53:00.403Z,67.67
2022-12-20T13:55:36.841Z,67.61
2022-12-20T13:58:15.343Z,67.65
2022-12-20T14:00:44.509Z,67.43
2022-12-20T14:03:24.694Z,66.66
2022-12-20T14:05:59.666Z,67.81
2022-12-20T14:08:34.271Z,67.84
2022-12-20T14:11:14.492Z,67.21
2022-12-20T14:13:43.645Z,67.59
2022-12-20T14:16:17.244Z,67.63
2022-12-20T14:18:50.484Z,67.99
2022-12-20T14:21:20.286Z,68.11
2022-12-20T14:23:53.107Z,67.86
2022-12-20T14:26:27.324Z,68.18
2022-12-20T14:28:58.100Z,67.23
2022-12-20T14:31:30.484Z,67.63
2022-12-20T14:34:13.323Z,67.82
2022-12-20T14:36:45.211Z,68.21
2022-12-20T14:39:29.568Z,68.00
2022-12-20T14:41:59.848Z,68.06
2022-12-20T14:44:31.737Z,68.33
2022-12-20T14:47:02.058Z,68.83
2022-12-20T14:49:33.078Z,69.26
2022-12-20T14:52:16.313Z,69.20
2022-12-20T14:55:08.953Z,69.67
2022-12-20T14:57:47.384Z,70.36
2022-12-20T15:00:24.218Z,69.49
2022-12-20T15:03:01.023Z,69.38
2022-12-20T15:05:51.120Z,69.55
2022-12-20T15:08:23.149Z,69.63
2022-12-20T15:10:57.123Z,70.89
2022-12-20T15:13:32.236Z,71.67
2022-12-20T15:16:02.441Z,72.46
2022-12-20T15:18:30.914Z,71.89
2022-12-20T15:21:07.538Z,71.65
2022-12-20T15:23:36.188Z,71.57
2022-12-20T15:26:05.987Z,71.50
2022-12-20T15:28:34.363Z,71.57
2022-12-20T15:31:04.613Z,71.45
2022-12-20T15:33:35.727Z,71.92
2022-12-20T15:36:03.974Z,70.76
2022-12-20T15:39:03.225Z,71.20
2022-12-20T15:41:25.526Z,71.10
2022-12-20T15:43:58.446Z,70.50
2022-12-20T15:46:26.969Z,70.87
2022-12-20T15:48:55.804Z,70.07
2022-12-20T15:51:31.902Z,70.50
2022-12-20T15:54:03.468Z,70.89
2022-12-20T15:56:32.988Z,70.45
2022-12-20T15:59:05.467Z,70.77
2022-12-20T16:01:46.925Z,70.43
2022-12-20T16:04:18.535Z,70.27
2022-12-20T16:06:50.503Z,70.78
2022-12-20T16:09:18.910Z,70.36
2022-12-20T16:11:49.959Z,71.11
2022-12-20T16:14:21.133Z,70.71
2022-12-20T16:16:50.118Z,70.99
2022-12-20T16:19:19.319Z,71.09
2022-12-20T16:21:49.669Z,70.15
2022-12-20T16:24:20.288Z,70.75
2022-12-20T16:26:50.197Z,70.76
2022-12-20T16:29:18.327Z,70.41
2022-12-20T16:31:46.506Z,70.48
2022-12-20T16:34:17.729Z,70.73
2022-12-20T16:36:47.469Z,70.06
2022-12-20T16:39:15.599Z,69.71
2022-12-20T16:41:44.813Z,70.16
2022-12-20T16:44:19.319Z,70.52
2022-12-20T16:46:47.453Z,69.31
2022-12-20T16:49:20.341Z,69.76
2022-12-20T16:51:50.708Z,70.17
2022-12-20T16:54:22.204Z,69.18
2022-12-20T16:56:55.447Z,69.21
2022-12-20T16:59:25.720Z,69.18
2022-12-20T17:01:57.560Z,69.16
2022-12-20T17:04:27.227Z,68.97
2022-12-20T17:06:55.565Z,69.52
2022-12-20T17:12:16.113Z,70.13
2022-12-20T17:14:46.275Z,69.04
2022-12-20T17:17:14.727Z,68.57
2022-12-20T17:19:43.064Z,69.56
2022-12-20T17:24:59.905Z,69.55
2022-12-20T17:27:28.024Z,69.94
2022-12-20T17:29:57.492Z,70.71
2022-12-20T17:32:26.378Z,70.43
2022-12-20T17:34:55.352Z,69.83
2022-12-20T17:37:24.562Z,69.75
2022-12-20T17:39:52.707Z,69.22
2022-12-20T17:42:25.579Z,69.16
2022-12-20T17:44:58.358Z,68.86
2022-12-20T17:47:26.467Z,68.64
2022-12-20T17:49:54.517Z,68.90
2022-12-20T17:52:22.941Z,69.21
2022-12-20T17:54:50.983Z,69.42
2022-12-20T17:57:19.126Z,69.43
2022-12-20T17:59:47.276Z,68.98
2022-12-20T18:02:27.337Z,69.43
2022-12-20T18:04:55.584Z,69.78
2022-12-20T18:07:23.644Z,69.57
2022-12-20T18:09:51.848Z,69.43
2022-12-20T18:12:19.943Z,69.55
2022-12-20T18:14:50.686Z,69.17
2022-12-20T18:17:19.050Z,69.30
2022-12-20T18:19:48.562Z,69.40
2022-12-20T18:22:16.925Z,69.78
2022-12-20T18:24:45.123Z,70.14
2022-12-20T18:27:13.628Z,69.57
2022-12-20T18:29:41.798Z,70.10
2022-12-20T18:32:09.994Z,69.64
2022-12-20T18:34:38.188Z,68.59
2022-12-20T18:37:07.655Z,69.05
2022-12-20T18:39:37.047Z,69.15
2022-12-20T18:42:05.477Z,68.56
2022-12-20T18:44:35.761Z,68.52
2022-12-20T18:47:04.771Z,68.62
2022-12-20T18:49:33.126Z,69.03
2022-12-20T18:52:01.299Z,69.27
2022-12-20T18:54:31.296Z,69.25
2022-12-20T18:56:59.546Z,69.64
2022-12-20T18:59:27.721Z,69.93
2022-12-20T19:01:56.043Z,70.04
2022-12-20T19:04:25.284Z,69.90
2022-12-20T19:06:53.873Z,69.45
2022-12-20T19:09:22.401Z,69.53
2022-12-20T19:11:57.126Z,69.95
2022-12-20T19:14:26.375Z,70.32
2022-12-20T19:16:54.776Z,70.18
2022-12-20T19:19:23.003Z,70.32
2022-12-20T19:21:51.227Z,70.35
2022-12-20T19:24:19.349Z,70.50
2022-12-20T19:26:47.469Z,70.08
2022-12-20T19:29:16.969Z,70.08
2022-12-20T19:31:45.196Z,69.57
2022-12-20T19:34:14.963Z,70.08
2022-12-20T19:36:46.269Z,70.22
2022-12-20T19:39:17.100Z,69.85
2022-12-20T19:42:05.997Z,70.36
2022-12-20T19:44:35.470Z,71.15
2022-12-20T19:47:06.843Z,72.03
2022-12-20T19:49:36.598Z,72.13
2022-12-20T19:52:05.699Z,72.39
2022-12-20T19:55:49.424Z,72.37
2022-12-20T19:58:17.551Z,71.82
2022-12-20T20:00:50.399Z,71.79
2022-12-20T20:03:19.900Z,71.70
2022-12-20T20:05:49.090Z,71.58
2022-12-20T20:08:17.368Z,71.47
2022-12-20T20:10:48.588Z,71.68
2022-12-20T20:13:16.807Z,72.44
2022-12-20T20:15:52.709Z,73.29
2022-12-20T20:18:21.252Z,73.54
2022-12-20T20:20:49.826Z,74.26
2022-12-20T20:23:18.115Z,74.47
2022-12-20T20:25:47.096Z,74.64
2022-12-20T20:28:15.377Z,74.71
2022-12-20T20:30:44.035Z,73.92
2022-12-20T20:33:13.699Z,73.53
2022-12-20T20:35:41.919Z,73.36
2022-12-20T20:38:12.791Z,73.31
2022-12-20T20:40:41.076Z,72.59
2022-12-20T20:43:09.178Z,72.95
2022-12-20T20:45:37.313Z,73.47
2022-12-20T20:48:06.341Z,73.41
2022-12-20T20:50:36.572Z,72.65
2022-12-20T20:53:06.127Z,72.56
2022-12-20T20:55:34.567Z,72.21
2022-12-20T20:58:02.997Z,72.55
2022-12-20T21:00:31.925Z,73.14
2022-12-20T21:03:00.527Z,72.67
2022-12-20T21:06:38.612Z,71.81
2022-12-20T21:08:20.020Z,71.28
2022-12-20T21:10:48.318Z,71.90
2022-12-20T21:13:17.249Z,72.34
2022-12-20T21:15:46.468Z,71.20
2022-12-20T21:18:15.289Z,70.94
2022-12-20T21:20:43.360Z,70.83
2022-12-20T21:23:12.389Z,70.62
2022-12-20T21:25:41.889Z,70.91
2022-12-20T21:28:17.690Z,71.21
2022-12-20T21:30:49.120Z,70.59
2022-12-20T21:33:17.249Z,70.50
2022-12-20T21:35:51.657Z,69.32
2022-12-20T21:38:21.955Z,69.12
2022-12-20T21:40:51.421Z,69.17
2022-12-20T21:43:19.499Z,68.96
2022-12-20T21:45:51.438Z,69.57
2022-12-20T21:48:20.077Z,69.22
2022-12-20T21:50:58.335Z,68.26
2022-12-20T21:53:26.478Z,68.67
2022-12-20T21:55:58.715Z,68.98
2022-12-20T21:58:30.440Z,69.18
2022-12-20T22:00:59.096Z,68.76
2022-12-20T22:03:27.739Z,68.83
2022-12-20T22:05:56.823Z,68.66
2022-12-20T22:08:27.584Z,69.09
2022-12-20T22:11:05.839Z,69.42
2022-12-20T22:13:41.037Z,69.43
2022-12-20T22:16:11.896Z,69.84
2022-12-20T22:18:41.380Z,69.27
2022-12-20T22:21:14.253Z,68.99
2022-12-20T22:23:43.397Z,69.15
2022-12-20T22:26:16.331Z,68.49
2022-12-20T22:28:47.818Z,68.39
2022-12-20T22:31:16.876Z,68.91
2022-12-20T22:33:45.835Z,69.24
2022-12-20T22:36:15.900Z,68.59
2022-12-20T22:38:44.692Z,68.38
2022-12-20T22:41:16.922Z,68.70
2022-12-20T22:43:46.770Z,68.89
2022-12-20T22:46:16.648Z,69.25
2022-12-20T22:48:46.225Z,68.56
2022-12-20T22:51:17.492Z,69.20
2022-12-20T22:53:47.463Z,69.23
2022-12-20T22:56:21.092Z,69.48
2022-12-20T22:58:51.850Z,69.34
2022-12-20T23:01:22.108Z,70.24
2022-12-20T23:03:50.664Z,68.62
2022-12-20T23:06:21.621Z,68.67
2022-12-20T23:08:50.487Z,68.26
2022-12-20T23:11:40.456Z,68.46
2022-12-20T23:14:38.037Z,68.03
2022-12-20T23:17:11.217Z,68.14
2022-12-20T23:19:59.472Z,67.82
2022-12-20T23:22:40.219Z,67.54
2022-12-20T23:25:12.309Z,68.01
2022-12-20T23:27:43.888Z,68.41
2022-12-20T23:30:15.824Z,69.73
2022-12-20T23:32:45.098Z,69.85
2022-12-20T23:35:13.872Z,70.22
2022-12-20T23:37:42.757Z,70.66
2022-12-20T23:40:12.843Z,70.97
2022-12-20T23:42:42.293Z,71.41
2022-12-20T23:45:12.033Z,72.29
2022-12-20T23:47:40.198Z,73.64
2022-12-20T23:50:09.751Z,74.32
2022-12-20T23:52:37.897Z,74.84
2022-12-20T23:55:07.422Z,75.56
2022-12-20T23:57:35.545Z,75.89
